Lambert, Arkansas
Current Conditions -  °F | °C
As of 12:53 PM on Tuesday 21 Oct 2014 (Local Time) from KHOT Reporting Station
Clear Clear  
Wind Chill: 75°   Ceiling: Unl
Heat Index: 75°   Visibility: 10mi
Dew Point: 59°   Wind: 5mph
Humidity: 57%   Direction: 250°WSW
Pressure: 30.1"   Gusts: NA
Location:  34.3335°N, 93.1952°W
Report Text: KHOT 211753Z AUTO 25004KT 10SM CLR 24/15 A3010 RMK AO2 SLP190 60000 T02390150 10239 20122 58013
Loading
Personal Weather Stations






























Interactive Weather Map
Tropical Storm Tracking
New forecast layout! Learn more

10-Day Weather Forecast

Advertisements
Track Severe Weather on mobile